createdAt,value
2023-05-01T00:01:06.376Z,4.67
2023-05-01T00:06:01.320Z,4.60
2023-05-01T00:08:30.677Z,4.07
2023-05-01T00:11:02.135Z,4.10
2023-05-01T00:13:29.177Z,4.57
2023-05-01T00:15:58.358Z,4.33
2023-05-01T00:18:25.201Z,4.40
2023-05-01T00:20:52.039Z,4.90
2023-05-01T00:23:20.938Z,4.10
2023-05-01T00:25:47.729Z,4.60
2023-05-01T00:28:20.143Z,4.77
2023-05-01T00:30:47.199Z,4.37
2023-05-01T00:33:14.080Z,4.83
2023-05-01T00:35:43.518Z,4.37
2023-05-01T00:38:10.386Z,4.43
2023-05-01T00:40:46.750Z,4.50
2023-05-01T00:43:13.611Z,4.37
2023-05-01T00:45:42.215Z,4.60
2023-05-01T00:48:09.537Z,4.67
2023-05-01T00:50:36.437Z,4.53
2023-05-01T00:53:04.107Z,4.93
2023-05-01T00:55:33.888Z,4.30
2023-05-01T00:58:01.024Z,4.47
2023-05-01T01:00:29.540Z,4.70
2023-05-01T01:02:56.582Z,4.50
2023-05-01T01:05:25.891Z,4.20
2023-05-01T01:07:59.435Z,4.23
2023-05-01T01:10:53.074Z,4.40
2023-05-01T01:13:35.618Z,4.60
2023-05-01T01:16:24.313Z,4.73
2023-05-01T01:18:56.586Z,4.27
2023-05-01T01:21:27.518Z,4.73
2023-05-01T01:24:26.215Z,4.83
2023-05-01T01:27:11.115Z,4.77
2023-05-01T01:29:47.316Z,4.77
2023-05-01T01:32:23.553Z,5.03
2023-05-01T01:35:01.035Z,4.47
2023-05-01T01:37:42.113Z,5.50
2023-05-01T01:40:11.941Z,5.30
2023-05-01T01:42:43.517Z,4.90
2023-05-01T01:45:14.748Z,5.17
2023-05-01T01:47:44.088Z,5.10
2023-05-01T01:50:10.956Z,5.27
2023-05-01T01:52:38.574Z,5.17
2023-05-01T01:55:12.703Z,5.47
2023-05-01T01:57:40.648Z,4.93
2023-05-01T02:00:08.999Z,5.83
2023-05-01T02:02:41.090Z,5.17
2023-05-01T02:05:08.793Z,5.73
2023-05-01T02:07:36.842Z,5.03
2023-05-01T02:10:06.786Z,5.70
2023-05-01T02:12:33.552Z,5.90
2023-05-01T02:15:00.329Z,6.47
2023-05-01T02:17:28.228Z,5.70
2023-05-01T02:19:55.726Z,5.20
2023-05-01T02:22:22.927Z,5.43
2023-05-01T02:24:49.693Z,5.47
2023-05-01T02:27:24.012Z,5.43
2023-05-01T02:29:58.769Z,5.90
2023-05-01T02:32:26.405Z,6.27
2023-05-01T02:34:53.242Z,5.50
2023-05-01T02:37:24.764Z,5.73
2023-05-01T02:39:51.497Z,6.00
2023-05-01T02:42:18.296Z,6.43
2023-05-01T02:45:08.188Z,5.80
2023-05-01T02:47:37.302Z,6.13
2023-05-01T02:50:04.467Z,5.57
2023-05-01T02:52:31.395Z,5.70
2023-05-01T02:55:00.437Z,5.70
2023-05-01T02:57:27.339Z,6.20
2023-05-01T02:59:54.387Z,6.40
2023-05-01T03:02:21.320Z,5.87
2023-05-01T03:04:50.401Z,6.10
2023-05-01T03:07:17.657Z,6.20
2023-05-01T03:09:44.425Z,5.90
2023-05-01T03:12:13.671Z,5.50
2023-05-01T03:14:40.489Z,5.90
2023-05-01T03:17:07.261Z,6.43
2023-05-01T03:19:37.432Z,6.13
2023-05-01T03:22:06.760Z,6.23
2023-05-01T03:24:33.691Z,6.60
2023-05-01T03:27:00.432Z,5.47
2023-05-01T03:29:27.198Z,5.77
2023-05-01T03:31:53.988Z,6.17
2023-05-01T03:34:23.117Z,5.60
2023-05-01T03:36:52.026Z,5.73
2023-05-01T03:39:21.423Z,6.37
2023-05-01T03:41:50.634Z,6.60
2023-05-01T03:44:17.380Z,6.17
2023-05-01T03:46:44.596Z,6.03
2023-05-01T03:49:13.606Z,6.43
2023-05-01T03:51:42.499Z,6.43
2023-05-01T03:54:11.492Z,7.13
2023-05-01T03:56:40.486Z,6.27
2023-05-01T03:59:12.418Z,6.03
2023-05-01T04:01:41.500Z,6.47
2023-05-01T04:04:08.636Z,6.60
2023-05-01T04:06:36.261Z,6.83
2023-05-01T04:09:03.588Z,6.33
2023-05-01T04:11:32.465Z,6.63
2023-05-01T04:14:01.817Z,6.83
2023-05-01T04:16:33.337Z,7.17
2023-05-01T04:19:00.161Z,6.93
2023-05-01T04:21:26.901Z,6.33
2023-05-01T04:23:56.257Z,5.93
2023-05-01T04:26:23.730Z,6.37
2023-05-01T04:28:50.978Z,5.77
2023-05-01T04:31:17.794Z,5.43
2023-05-01T04:33:46.949Z,6.33
2023-05-01T04:36:13.810Z,6.07
2023-05-01T04:38:40.538Z,5.47
2023-05-01T04:41:09.998Z,5.40
2023-05-01T04:43:38.951Z,5.17
2023-05-01T04:46:08.207Z,4.67
2023-05-01T04:48:37.209Z,5.13
2023-05-01T04:51:04.173Z,4.77
2023-05-01T04:53:32.052Z,4.43
2023-05-01T04:55:58.897Z,4.30
2023-05-01T04:58:27.814Z,4.30
2023-05-01T05:00:56.996Z,4.03
2023-05-01T05:03:23.972Z,4.60
2023-05-01T05:05:50.891Z,4.47
2023-05-01T05:08:17.658Z,4.30
2023-05-01T05:10:44.495Z,4.00
2023-05-01T05:13:15.793Z,4.40
2023-05-01T05:15:43.023Z,4.13
2023-05-01T05:18:09.869Z,4.50
2023-05-01T05:20:39.804Z,3.80
2023-05-01T05:23:08.306Z,3.60
2023-05-01T05:25:35.382Z,4.20
2023-05-01T05:28:02.214Z,3.83
2023-05-01T05:30:28.994Z,3.63
2023-05-01T05:32:55.795Z,4.17
2023-05-01T05:35:22.632Z,3.87
2023-05-01T05:37:52.111Z,3.40
2023-05-01T05:40:19.486Z,3.50
2023-05-01T05:42:46.245Z,3.67
2023-05-01T05:45:13.041Z,3.50
2023-05-01T05:47:39.907Z,3.10
2023-05-01T05:50:07.489Z,3.53
2023-05-01T05:52:34.551Z,3.23
2023-05-01T05:55:08.365Z,3.40
2023-05-01T05:57:39.905Z,2.80
2023-05-01T06:00:09.327Z,3.50
2023-05-01T06:02:36.380Z,3.30
2023-05-01T06:05:03.734Z,3.30
2023-05-01T06:07:30.628Z,2.77
2023-05-01T06:10:04.221Z,2.90
2023-05-01T06:12:31.896Z,2.53
2023-05-01T06:14:59.365Z,2.40
2023-05-01T06:17:28.567Z,2.40
2023-05-01T06:19:56.122Z,2.00
2023-05-01T06:22:28.082Z,2.73
2023-05-01T06:24:55.624Z,2.70
2023-05-01T06:27:24.503Z,2.30
2023-05-01T06:29:51.266Z,2.73
2023-05-01T06:32:18.003Z,3.07
2023-05-01T06:34:44.931Z,3.60
2023-05-01T06:37:12.099Z,3.20
2023-05-01T06:39:38.866Z,2.80
2023-05-01T06:42:05.741Z,2.90
2023-05-01T06:44:34.658Z,3.57
2023-05-01T06:47:01.915Z,3.30
2023-05-01T06:49:28.836Z,3.00
2023-05-01T06:51:58.188Z,3.10
2023-05-01T06:54:24.975Z,2.97
2023-05-01T06:56:51.820Z,2.83
2023-05-01T06:59:18.590Z,2.60
2023-05-01T07:01:45.521Z,2.90
2023-05-01T07:04:12.367Z,2.77
2023-05-01T07:06:39.185Z,2.93
2023-05-01T07:09:06.540Z,3.27
2023-05-01T07:11:35.819Z,3.30
2023-05-01T07:14:04.786Z,3.10
2023-05-01T07:16:32.379Z,3.10
2023-05-01T07:18:59.212Z,3.03
2023-05-01T07:21:28.423Z,3.07
2023-05-01T07:23:55.214Z,2.90
2023-05-01T07:26:25.817Z,3.47
2023-05-01T07:28:54.801Z,3.20
2023-05-01T07:31:22.837Z,3.13
2023-05-01T07:33:50.332Z,2.83
2023-05-01T07:36:20.456Z,3.23
2023-05-01T07:38:47.491Z,3.17
2023-05-01T07:41:17.146Z,3.03
2023-05-01T07:43:46.121Z,2.97
2023-05-01T07:46:12.994Z,3.20
2023-05-01T07:48:40.224Z,3.10
2023-05-01T07:51:09.262Z,3.50
2023-05-01T07:53:36.075Z,3.17
2023-05-01T07:56:10.045Z,3.30
2023-05-01T07:58:37.249Z,2.90
2023-05-01T08:01:04.084Z,2.93
2023-05-01T08:03:31.440Z,2.77
2023-05-01T08:05:58.519Z,3.00
2023-05-01T08:08:25.339Z,3.00
2023-05-01T08:10:57.610Z,3.07
2023-05-01T08:13:24.362Z,2.80
2023-05-01T08:15:51.224Z,2.93
2023-05-01T08:18:21.211Z,2.63
2023-05-01T08:20:50.789Z,3.40
2023-05-01T08:23:19.852Z,2.80
2023-05-01T08:25:51.719Z,3.30
2023-05-01T08:28:20.850Z,3.40
2023-05-01T08:30:49.328Z,3.13
2023-05-01T08:33:16.562Z,3.10
2023-05-01T08:35:43.387Z,3.27
2023-05-01T08:38:13.056Z,2.97
2023-05-01T08:40:41.542Z,3.50
2023-05-01T08:43:08.328Z,3.07
2023-05-01T08:45:36.278Z,3.20
2023-05-01T08:48:06.005Z,3.00
2023-05-01T08:50:35.071Z,3.10
2023-05-01T08:53:06.444Z,3.07
2023-05-01T08:55:33.935Z,3.50
2023-05-01T08:58:00.779Z,3.30
2023-05-01T09:00:29.677Z,2.83
2023-05-01T09:02:56.472Z,2.43
2023-05-01T09:05:23.245Z,2.90
2023-05-01T09:07:50.071Z,2.80
2023-05-01T09:10:18.536Z,3.13
2023-05-01T09:12:47.105Z,3.00
2023-05-01T09:15:16.080Z,2.73
2023-05-01T09:17:43.421Z,2.83
2023-05-01T09:20:10.670Z,2.83
2023-05-01T09:22:37.493Z,2.63
2023-05-01T09:25:07.017Z,2.50
2023-05-01T09:27:37.583Z,2.37
2023-05-01T09:30:06.568Z,2.20
2023-05-01T09:32:33.565Z,2.47
2023-05-01T09:35:14.040Z,2.53
2023-05-01T09:37:41.070Z,2.77
2023-05-01T09:40:12.122Z,2.70
2023-05-01T09:42:39.854Z,2.70
2023-05-01T09:45:18.949Z,2.80
2023-05-01T09:47:46.412Z,2.50
2023-05-01T09:50:34.900Z,2.10
2023-05-01T09:53:02.743Z,2.40
2023-05-01T09:55:29.511Z,2.50
2023-05-01T09:57:56.274Z,2.00
2023-05-01T10:00:23.092Z,2.80
2023-05-01T10:02:50.517Z,2.43
2023-05-01T10:05:17.803Z,2.50
2023-05-01T10:08:03.829Z,2.63
2023-05-01T10:10:30.807Z,2.23
2023-05-01T10:12:59.602Z,2.67
2023-05-01T10:15:36.541Z,2.70
2023-05-01T10:18:03.411Z,2.90
2023-05-01T10:20:32.652Z,2.10
2023-05-01T10:23:03.305Z,2.30
2023-05-01T10:25:32.830Z,2.80
2023-05-01T10:28:02.392Z,2.60
2023-05-01T10:30:31.790Z,2.40
2023-05-01T10:32:59.494Z,1.93
2023-05-01T10:35:32.074Z,2.13
2023-05-01T10:38:24.045Z,2.50
2023-05-01T10:40:51.265Z,2.53
2023-05-01T10:43:18.103Z,2.27
2023-05-01T10:45:47.811Z,2.33
2023-05-01T10:48:47.777Z,2.33
2023-05-01T10:51:15.625Z,2.57
2023-05-01T10:53:42.893Z,2.60
2023-05-01T10:56:23.916Z,2.23
2023-05-01T10:58:53.452Z,2.20
2023-05-01T11:01:41.417Z,2.43
2023-05-01T11:04:27.172Z,2.30
2023-05-01T11:07:06.029Z,2.40
2023-05-01T11:09:49.314Z,2.53
2023-05-01T11:12:36.820Z,2.03
2023-05-01T11:15:05.523Z,2.00
2023-05-01T11:17:41.725Z,2.03
2023-05-01T11:20:40.062Z,1.75
2023-05-01T11:23:09.375Z,1.80
2023-05-01T11:25:38.308Z,2.13
2023-05-01T11:28:07.280Z,1.70
2023-05-01T11:30:39.540Z,1.92
2023-05-01T11:33:09.140Z,1.80
2023-05-01T11:35:39.367Z,1.70
2023-05-01T11:38:06.138Z,1.50
2023-05-01T11:40:34.460Z,2.00
2023-05-01T11:43:04.128Z,1.85
2023-05-01T11:45:31.493Z,1.60
2023-05-01T11:47:59.964Z,2.13
2023-05-01T11:50:33.121Z,2.10
2023-05-01T11:52:59.896Z,1.92
2023-05-01T11:55:36.155Z,2.22
2023-05-01T11:58:05.061Z,1.90
2023-05-01T12:00:39.244Z,2.20
2023-05-01T12:03:10.494Z,2.00
2023-05-01T12:05:42.611Z,2.47
2023-05-01T12:08:13.165Z,1.98
2023-05-01T12:10:42.153Z,2.10
2023-05-01T12:13:09.966Z,2.47
2023-05-01T12:15:37.943Z,2.35
2023-05-01T12:18:08.014Z,2.10
2023-05-01T12:20:41.971Z,2.10
2023-05-01T12:23:12.867Z,2.20
2023-05-01T12:25:40.809Z,2.00
2023-05-01T12:28:14.621Z,1.77
2023-05-01T12:30:42.412Z,1.97
2023-05-01T12:33:30.222Z,1.80
2023-05-01T12:36:02.417Z,2.10
2023-05-01T12:38:29.335Z,2.00
2023-05-01T12:40:59.778Z,1.77
2023-05-01T12:43:32.962Z,2.43
2023-05-01T12:45:59.836Z,2.00
2023-05-01T12:48:28.885Z,2.03
2023-05-01T12:50:55.910Z,2.23
2023-05-01T12:53:27.789Z,2.67
2023-05-01T12:55:56.280Z,2.13
2023-05-01T12:58:23.305Z,2.30
2023-05-01T13:00:54.783Z,2.10
2023-05-01T13:03:28.416Z,2.27
2023-05-01T13:05:57.645Z,1.90
2023-05-01T13:08:29.298Z,1.80
2023-05-01T13:10:59.646Z,1.87
2023-05-01T13:13:37.849Z,2.07
2023-05-01T13:16:12.842Z,2.23
2023-05-01T13:18:49.576Z,1.87
2023-05-01T13:21:19.740Z,2.30
2023-05-01T13:24:02.056Z,2.37
2023-05-01T13:26:35.220Z,2.20
2023-05-01T13:29:03.676Z,1.80
2023-05-01T13:31:30.567Z,2.07
2023-05-01T13:34:03.228Z,1.80
2023-05-01T13:36:33.519Z,1.80
2023-05-01T13:39:00.373Z,1.80
2023-05-01T13:41:30.526Z,1.80
2023-05-01T13:43:57.527Z,1.80
2023-05-01T13:46:25.123Z,1.97
2023-05-01T13:48:51.990Z,1.97
2023-05-01T13:51:24.633Z,2.00
2023-05-01T13:53:56.358Z,1.73
2023-05-01T13:56:23.221Z,1.70
2023-05-01T13:58:50.712Z,1.60
2023-05-01T14:01:21.419Z,2.00
2023-05-01T14:03:50.811Z,2.20
2023-05-01T14:06:19.155Z,2.20
2023-05-01T14:08:47.002Z,2.50
2023-05-01T14:11:14.256Z,2.17
2023-05-01T14:13:44.926Z,2.22
2023-05-01T14:16:23.585Z,2.03
2023-05-01T14:18:54.522Z,1.77
2023-05-01T14:21:22.749Z,1.80
2023-05-01T14:23:49.626Z,1.90
2023-05-01T14:26:22.053Z,1.65
2023-05-01T14:28:49.005Z,1.95
2023-05-01T14:31:21.604Z,1.77
2023-05-01T14:33:54.224Z,1.40
2023-05-01T14:36:23.297Z,1.73
2023-05-01T14:38:53.167Z,1.67
2023-05-01T14:41:19.959Z,1.88
2023-05-01T14:43:47.121Z,2.25
2023-05-01T14:46:14.952Z,2.08
2023-05-01T14:48:42.184Z,1.65
2023-05-01T14:51:12.629Z,1.98
2023-05-01T14:53:42.524Z,1.88
2023-05-01T14:56:09.332Z,2.15
2023-05-01T14:58:36.381Z,2.00
2023-05-01T15:01:03.291Z,2.10
2023-05-01T15:03:40.842Z,1.85
2023-05-01T15:06:10.761Z,1.80
2023-05-01T15:08:38.298Z,2.22
2023-05-01T15:11:09.885Z,2.22
2023-05-01T15:13:36.696Z,2.17
2023-05-01T15:16:06.047Z,1.93
2023-05-01T15:18:34.588Z,2.15
2023-05-01T15:21:01.565Z,2.27
2023-05-01T15:23:28.433Z,2.60
2023-05-01T15:25:55.355Z,2.03
2023-05-01T15:28:22.570Z,2.47
2023-05-01T15:30:52.032Z,2.30
2023-05-01T15:33:21.318Z,1.67
2023-05-01T15:35:48.939Z,2.30
2023-05-01T15:38:15.773Z,2.33
2023-05-01T15:40:45.930Z,1.83
2023-05-01T15:43:12.768Z,2.13
2023-05-01T15:45:43.749Z,2.90
2023-05-01T15:48:11.821Z,2.40
2023-05-01T15:50:38.713Z,1.90
2023-05-01T15:53:07.850Z,1.97
2023-05-01T15:55:34.760Z,2.40
2023-05-01T15:58:02.782Z,2.60
2023-05-01T16:00:32.879Z,2.80
2023-05-01T16:03:01.496Z,2.37
2023-05-01T16:05:30.480Z,2.40
2023-05-01T16:08:02.486Z,2.13
2023-05-01T16:10:29.327Z,2.40
2023-05-01T16:12:58.188Z,2.03
2023-05-01T16:15:27.203Z,2.50
2023-05-01T16:17:55.077Z,2.50
2023-05-01T16:20:21.992Z,2.13
2023-05-01T16:22:52.004Z,2.27
2023-05-01T16:25:18.975Z,2.37
2023-05-01T16:27:48.374Z,2.23
2023-05-01T16:30:15.280Z,2.20
2023-05-01T16:32:42.424Z,2.70
2023-05-01T16:35:17.447Z,2.20
2023-05-01T16:37:44.221Z,2.20
2023-05-01T16:40:17.871Z,2.10
2023-05-01T16:42:54.364Z,2.30
2023-05-01T16:45:21.574Z,2.20
2023-05-01T16:47:48.533Z,2.80
2023-05-01T16:50:17.903Z,2.77
2023-05-01T16:52:44.666Z,2.00
2023-05-01T16:55:13.883Z,2.50
2023-05-01T16:57:42.403Z,2.30
2023-05-01T17:00:14.752Z,2.57
2023-05-01T17:02:41.600Z,2.43
2023-05-01T17:05:08.757Z,2.67
2023-05-01T17:07:35.624Z,2.40
2023-05-01T17:10:05.926Z,2.50
2023-05-01T17:12:35.172Z,2.67
2023-05-01T17:15:01.925Z,2.80
2023-05-01T17:17:30.951Z,2.20
2023-05-01T17:19:57.920Z,2.67
2023-05-01T17:22:25.840Z,2.40
2023-05-01T17:24:53.424Z,2.50
2023-05-01T17:27:20.231Z,2.50
2023-05-01T17:29:46.979Z,2.37
2023-05-01T17:32:16.003Z,3.13
2023-05-01T17:34:52.841Z,2.20
2023-05-01T17:37:21.812Z,2.43
2023-05-01T17:39:50.762Z,3.23
2023-05-01T17:42:17.482Z,3.07
2023-05-01T17:44:44.362Z,2.70
2023-05-01T17:47:11.115Z,2.70
2023-05-01T17:49:40.269Z,3.00
2023-05-01T17:52:07.018Z,2.97
2023-05-01T17:54:33.851Z,2.77
2023-05-01T17:57:03.002Z,2.90
2023-05-01T17:59:30.916Z,2.83
2023-05-01T18:02:00.012Z,2.77
2023-05-01T18:04:27.005Z,2.50
2023-05-01T18:06:56.307Z,2.50
2023-05-01T18:09:25.679Z,3.00
2023-05-01T18:11:52.420Z,3.00
2023-05-01T18:14:19.233Z,2.90
2023-05-01T18:16:46.589Z,2.97
2023-05-01T18:19:13.490Z,2.90
2023-05-01T18:21:40.282Z,3.27
2023-05-01T18:24:07.075Z,2.83
2023-05-01T18:26:36.473Z,3.17
2023-05-01T18:29:05.418Z,3.00
2023-05-01T18:31:35.905Z,2.80
2023-05-01T18:34:04.895Z,3.10
2023-05-01T18:36:34.005Z,3.30
2023-05-01T18:39:02.995Z,3.30
2023-05-01T18:41:30.104Z,3.33
2023-05-01T18:43:58.149Z,3.70
2023-05-01T18:46:25.075Z,3.50
2023-05-01T18:48:51.865Z,3.33
2023-05-01T18:51:18.687Z,3.53
2023-05-01T18:53:45.500Z,3.43
2023-05-01T18:56:12.388Z,3.37
2023-05-01T18:58:39.970Z,3.23
2023-05-01T19:01:06.909Z,3.20
2023-05-01T19:03:36.193Z,3.47
2023-05-01T19:06:03.106Z,3.83
2023-05-01T19:08:32.155Z,3.57
2023-05-01T19:10:58.973Z,3.47
2023-05-01T19:13:25.744Z,3.53
2023-05-01T19:15:53.520Z,3.47
2023-05-01T19:18:20.325Z,3.60
2023-05-01T19:20:49.598Z,3.97
2023-05-01T19:23:18.852Z,4.03
2023-05-01T19:25:45.639Z,3.97
2023-05-01T19:28:12.387Z,4.23
2023-05-01T19:30:41.774Z,4.33
2023-05-01T19:33:08.781Z,3.97
2023-05-01T19:35:36.259Z,4.20
2023-05-01T19:38:05.494Z,3.97
2023-05-01T19:40:32.417Z,4.30
2023-05-01T19:42:59.207Z,4.20
2023-05-01T19:45:26.371Z,4.13
2023-05-01T19:47:53.447Z,4.40
2023-05-01T19:50:20.363Z,4.57
2023-05-01T19:52:48.243Z,3.97
2023-05-01T19:55:23.613Z,4.40
2023-05-01T19:57:51.916Z,4.80
2023-05-01T20:00:21.544Z,4.50
2023-05-01T20:02:48.606Z,4.87
2023-05-01T20:05:17.679Z,4.93
2023-05-01T20:07:44.491Z,5.07
2023-05-01T20:10:13.940Z,4.27
2023-05-01T20:12:42.109Z,4.53
2023-05-01T20:15:09.430Z,4.77
2023-05-01T20:17:40.838Z,4.97
2023-05-01T20:20:08.106Z,5.10
2023-05-01T20:22:34.840Z,5.07
2023-05-01T20:25:01.662Z,4.73
2023-05-01T20:27:28.472Z,5.03
2023-05-01T20:29:55.258Z,4.83
2023-05-01T20:32:22.048Z,5.20
2023-05-01T20:34:48.858Z,5.23
2023-05-01T20:37:16.556Z,5.00
2023-05-01T20:39:45.523Z,4.97
2023-05-01T20:42:12.282Z,4.97
2023-05-01T20:44:39.856Z,5.57
2023-05-01T20:47:06.646Z,5.03
2023-05-01T20:49:33.707Z,4.90
2023-05-01T20:52:00.652Z,4.43
2023-05-01T20:54:32.285Z,5.13
2023-05-01T20:57:00.021Z,4.97
2023-05-01T20:59:31.955Z,4.90
2023-05-01T21:01:58.761Z,5.00
2023-05-01T21:04:27.865Z,4.97
2023-05-01T21:06:54.772Z,4.60
2023-05-01T21:09:23.737Z,4.70
2023-05-01T21:11:53.012Z,4.73
2023-05-01T21:14:19.784Z,4.30
2023-05-01T21:16:46.546Z,4.80
2023-05-01T21:19:13.250Z,4.23
2023-05-01T21:21:42.519Z,5.00
2023-05-01T21:24:09.317Z,4.73
2023-05-01T21:26:38.318Z,5.60
2023-05-01T21:29:05.025Z,4.60
2023-05-01T21:31:36.972Z,5.50
2023-05-01T21:34:03.808Z,5.17
2023-05-01T21:36:31.366Z,5.30
2023-05-01T21:39:00.155Z,5.23
2023-05-01T21:41:29.362Z,5.50
2023-05-01T21:43:58.752Z,5.13
2023-05-01T21:46:25.659Z,5.30
2023-05-01T21:48:52.520Z,4.83
2023-05-01T21:51:28.538Z,5.30
2023-05-01T21:53:55.827Z,5.20
2023-05-01T21:56:25.127Z,5.10
2023-05-01T21:58:54.025Z,5.20
2023-05-01T22:01:20.831Z,5.50
2023-05-01T22:03:50.096Z,5.07
2023-05-01T22:06:17.133Z,4.97
2023-05-01T22:08:44.104Z,5.13
2023-05-01T22:11:12.967Z,5.40
2023-05-01T22:13:41.961Z,5.60
2023-05-01T22:16:12.658Z,6.00
2023-05-01T22:18:39.628Z,5.37
2023-05-01T22:21:06.725Z,6.10
2023-05-01T22:23:33.480Z,5.87
2023-05-01T22:26:05.137Z,6.13
2023-05-01T22:28:34.297Z,5.87
2023-05-01T22:31:01.101Z,5.40
2023-05-01T22:33:28.056Z,6.03
2023-05-01T22:35:54.819Z,5.40
2023-05-01T22:38:21.543Z,5.87
2023-05-01T22:40:53.178Z,6.23
2023-05-01T22:43:19.940Z,6.83
2023-05-01T22:45:46.720Z,6.07
2023-05-01T22:48:13.585Z,5.90
2023-05-01T22:50:42.737Z,5.80
2023-05-01T22:53:09.796Z,6.00
2023-05-01T22:55:37.897Z,6.63
2023-05-01T22:58:04.662Z,6.23
2023-05-01T23:00:31.456Z,6.07
2023-05-01T23:03:00.097Z,6.50
2023-05-01T23:05:29.368Z,6.53
2023-05-01T23:07:56.114Z,5.77
2023-05-01T23:10:23.907Z,5.90
2023-05-01T23:12:50.660Z,6.23
2023-05-01T23:15:21.668Z,6.50
2023-05-01T23:17:48.437Z,6.73
2023-05-01T23:20:22.553Z,5.90
2023-05-01T23:22:54.248Z,6.23
2023-05-01T23:25:23.163Z,6.27
2023-05-01T23:27:51.473Z,6.07
2023-05-01T23:30:23.381Z,6.90
2023-05-01T23:32:52.445Z,6.83
2023-05-01T23:35:20.793Z,6.83
2023-05-01T23:37:47.765Z,6.60
2023-05-01T23:40:14.555Z,6.17
2023-05-01T23:42:41.319Z,7.03
2023-05-01T23:45:08.457Z,6.23
2023-05-01T23:47:37.630Z,6.60
2023-05-01T23:50:04.946Z,6.57
2023-05-01T23:52:36.492Z,6.73
2023-05-01T23:55:03.357Z,6.30
2023-05-01T23:57:30.155Z,6.23
2023-05-01T23:59:56.992Z,6.40
